createdAt,value
2018-05-15T00:02:23.804Z,6.00
2018-05-15T00:04:52.043Z,5.60
2018-05-15T00:07:19.577Z,6.00
2018-05-15T00:09:47.801Z,6.00
2018-05-15T00:12:15.311Z,6.37
2018-05-15T00:14:43.599Z,5.90
2018-05-15T00:17:11.073Z,4.97
2018-05-15T00:19:39.294Z,6.23
2018-05-15T00:22:06.801Z,6.40
2018-05-15T00:24:34.264Z,6.67
2018-05-15T00:27:01.776Z,5.57
2018-05-15T00:29:29.210Z,5.43
2018-05-15T00:31:56.721Z,5.80
2018-05-15T00:34:24.181Z,6.10
2018-05-15T00:36:52.470Z,5.87
2018-05-15T00:39:19.924Z,6.33
2018-05-15T00:41:47.396Z,6.57
2018-05-15T00:44:15.657Z,5.80
2018-05-15T00:46:43.796Z,5.70
2018-05-15T00:49:11.384Z,6.83
2018-05-15T00:51:39.602Z,6.27
2018-05-15T00:54:07.902Z,6.30
2018-05-15T00:56:35.361Z,5.77
2018-05-15T00:59:03.011Z,6.67
2018-05-15T01:01:31.300Z,6.77
2018-05-15T01:03:58.748Z,6.80
2018-05-15T01:06:27.009Z,6.40
2018-05-15T01:08:54.478Z,6.10
2018-05-15T01:11:21.992Z,5.60
2018-05-15T01:13:49.506Z,6.10
2018-05-15T01:16:17.775Z,7.07
2018-05-15T01:18:45.278Z,6.60
2018-05-15T01:21:12.754Z,6.50
2018-05-15T01:23:40.303Z,6.63
2018-05-15T01:26:07.703Z,7.10
2018-05-15T01:28:35.258Z,6.53
2018-05-15T01:31:02.844Z,7.83
2018-05-15T01:33:30.348Z,7.23
2018-05-15T01:35:57.802Z,7.20
2018-05-15T01:38:26.067Z,7.30
2018-05-15T01:40:53.552Z,7.60
2018-05-15T01:43:21.802Z,7.10
2018-05-15T01:45:49.317Z,7.33
2018-05-15T01:48:16.833Z,8.13
2018-05-15T01:50:44.266Z,7.40
2018-05-15T01:53:11.746Z,6.90
2018-05-15T01:55:39.382Z,7.60
2018-05-15T01:58:06.940Z,6.90
2018-05-15T02:00:35.963Z,7.40
2018-05-15T02:03:03.425Z,7.90
2018-05-15T02:05:30.932Z,8.07
2018-05-15T02:07:59.273Z,8.03
2018-05-15T02:10:26.785Z,8.33
2018-05-15T02:12:54.250Z,9.17
2018-05-15T02:15:21.724Z,8.33
2018-05-15T02:17:49.221Z,8.20
2018-05-15T02:20:16.765Z,8.97
2018-05-15T02:22:44.303Z,9.60
2018-05-15T02:25:12.538Z,8.63
2018-05-15T02:27:40.116Z,8.33
2018-05-15T02:30:07.728Z,7.90
2018-05-15T02:32:35.219Z,8.57
2018-05-15T02:35:02.716Z,8.10
2018-05-15T02:37:30.184Z,8.00
2018-05-15T02:39:58.638Z,9.30
2018-05-15T02:42:26.218Z,8.33
2018-05-15T02:44:53.683Z,9.17
2018-05-15T02:47:21.306Z,8.93
2018-05-15T02:49:49.550Z,9.47
2018-05-15T02:52:17.774Z,9.40
2018-05-15T02:54:45.234Z,9.93
2018-05-15T02:57:12.732Z,9.07
2018-05-15T02:59:40.251Z,9.60
2018-05-15T03:02:07.857Z,10.53
2018-05-15T03:04:35.455Z,10.17
2018-05-15T03:07:03.024Z,8.80
2018-05-15T03:09:31.287Z,9.57
2018-05-15T03:11:58.769Z,10.40
2018-05-15T03:14:26.224Z,9.50
2018-05-15T03:16:54.643Z,10.40
2018-05-15T03:19:22.073Z,10.80
2018-05-15T03:21:50.360Z,10.20
2018-05-15T03:24:18.704Z,9.60
2018-05-15T03:26:46.244Z,10.93
2018-05-15T03:29:13.687Z,10.13
2018-05-15T03:31:41.255Z,10.50
2018-05-15T03:34:09.554Z,10.87
2018-05-15T03:36:37.066Z,11.57
2018-05-15T03:39:04.630Z,10.50
2018-05-15T03:41:32.859Z,11.03
2018-05-15T03:44:00.360Z,10.37
2018-05-15T03:46:27.867Z,9.63
2018-05-15T03:48:55.435Z,11.20
2018-05-15T03:51:22.999Z,11.17
2018-05-15T03:53:51.286Z,10.70
2018-05-15T03:56:19.553Z,9.53
2018-05-15T03:58:47.107Z,9.13
2018-05-15T04:01:14.827Z,10.03
2018-05-15T04:03:43.046Z,10.20
2018-05-15T04:06:11.340Z,10.00
2018-05-15T04:08:38.865Z,9.40
2018-05-15T04:11:06.454Z,10.17
2018-05-15T04:13:33.912Z,9.60
2018-05-15T04:16:02.383Z,9.67
2018-05-15T04:18:29.854Z,10.53
2018-05-15T04:20:57.340Z,9.40
2018-05-15T04:23:25.570Z,9.40
2018-05-15T04:25:53.072Z,10.57
2018-05-15T04:28:21.319Z,11.77
2018-05-15T04:30:48.842Z,11.87
2018-05-15T04:33:16.309Z,12.00
2018-05-15T04:35:43.791Z,11.50
2018-05-15T04:38:11.436Z,9.40
2018-05-15T04:40:39.075Z,9.20
2018-05-15T04:43:07.296Z,9.43
2018-05-15T04:45:34.882Z,8.67
2018-05-15T04:48:02.389Z,9.90
2018-05-15T04:50:29.810Z,8.07
2018-05-15T04:52:57.279Z,9.23
2018-05-15T04:55:24.784Z,9.40
2018-05-15T04:57:52.291Z,9.90
2018-05-15T05:00:19.781Z,9.70
2018-05-15T05:02:47.251Z,8.37
2018-05-15T05:05:15.770Z,9.57
2018-05-15T05:07:43.244Z,9.13
2018-05-15T05:10:10.751Z,9.30
2018-05-15T05:12:38.288Z,9.53
2018-05-15T05:15:05.798Z,9.73
2018-05-15T05:17:33.281Z,10.30
2018-05-15T05:20:00.780Z,9.27
2018-05-15T05:22:28.286Z,8.90
2018-05-15T05:24:55.835Z,8.73
2018-05-15T05:27:23.352Z,9.23
2018-05-15T05:29:50.869Z,9.53
2018-05-15T05:32:19.265Z,8.87
2018-05-15T05:34:46.806Z,8.93
2018-05-15T05:37:14.412Z,9.67
2018-05-15T05:39:41.910Z,9.37
2018-05-15T05:42:09.528Z,8.63
2018-05-15T05:44:37.190Z,9.40
2018-05-15T05:47:05.578Z,7.97
2018-05-15T05:49:33.053Z,8.80
2018-05-15T05:52:00.646Z,8.10
2018-05-15T05:54:28.062Z,9.03
2018-05-15T05:56:56.348Z,8.70
2018-05-15T05:59:24.606Z,8.77
2018-05-15T06:01:52.147Z,8.10
2018-05-15T06:04:19.616Z,8.20
2018-05-15T06:06:47.120Z,7.90
2018-05-15T06:09:14.648Z,8.50
2018-05-15T06:11:42.179Z,7.87
2018-05-15T06:14:09.656Z,7.53
2018-05-15T06:16:37.158Z,7.77
2018-05-15T06:19:05.468Z,7.57
2018-05-15T06:21:33.074Z,8.27
2018-05-15T06:24:01.271Z,7.90
2018-05-15T06:26:28.772Z,8.30
2018-05-15T06:28:56.317Z,7.77
2018-05-15T06:31:23.849Z,7.50
2018-05-15T06:33:51.362Z,7.17
2018-05-15T06:36:18.868Z,7.33
2018-05-15T06:38:46.422Z,8.10
2018-05-15T06:41:13.917Z,7.50
2018-05-15T06:43:41.415Z,7.23
2018-05-15T06:46:08.980Z,7.43
2018-05-15T06:48:36.381Z,7.27
2018-05-15T06:51:03.933Z,7.00
2018-05-15T06:53:31.504Z,8.60
2018-05-15T06:55:59.292Z,7.30
2018-05-15T06:58:26.769Z,6.73
2018-05-15T07:00:54.449Z,6.23
2018-05-15T07:03:22.763Z,7.13
2018-05-15T07:05:50.306Z,6.20
2018-05-15T07:08:17.835Z,6.97
2018-05-15T07:10:45.335Z,6.73
2018-05-15T07:13:12.840Z,6.73
2018-05-15T07:15:40.334Z,6.10
2018-05-15T07:18:07.860Z,6.70
2018-05-15T07:20:35.725Z,7.23
2018-05-15T07:23:03.281Z,6.83
2018-05-15T07:25:30.773Z,6.23
2018-05-15T07:27:58.981Z,6.90
2018-05-15T07:30:26.543Z,6.97
2018-05-15T07:32:54.022Z,7.23
2018-05-15T07:35:22.376Z,6.87
2018-05-15T07:37:50.034Z,6.60
2018-05-15T07:40:17.577Z,6.70
2018-05-15T07:42:45.172Z,6.70
2018-05-15T07:45:12.751Z,6.27
2018-05-15T07:47:40.364Z,6.30
2018-05-15T07:50:07.898Z,6.27
2018-05-15T07:52:35.380Z,5.80
2018-05-15T07:55:02.882Z,6.90
2018-05-15T07:57:30.407Z,6.67
2018-05-15T07:59:57.957Z,6.87
2018-05-15T08:02:25.500Z,6.10
2018-05-15T08:04:53.778Z,6.80
2018-05-15T08:07:22.139Z,6.30
2018-05-15T08:09:49.551Z,6.17
2018-05-15T08:12:17.041Z,6.20
2018-05-15T08:14:44.501Z,6.40
2018-05-15T08:17:11.987Z,7.30
2018-05-15T08:19:39.487Z,6.30
2018-05-15T08:22:07.815Z,5.77
2018-05-15T08:24:35.277Z,5.77
2018-05-15T08:27:02.766Z,6.10
2018-05-15T08:29:30.302Z,5.03
2018-05-15T08:31:57.921Z,5.53
2018-05-15T08:34:25.477Z,5.70
2018-05-15T08:36:52.974Z,6.40
2018-05-15T08:39:20.658Z,5.73
2018-05-15T08:41:48.260Z,4.90
2018-05-15T08:44:15.719Z,6.07
2018-05-15T08:46:43.246Z,5.87
2018-05-15T08:49:11.538Z,6.40
2018-05-15T08:51:39.751Z,7.40
2018-05-15T08:54:07.200Z,5.30
2018-05-15T08:56:34.701Z,5.40
2018-05-15T08:59:02.311Z,5.77
2018-05-15T09:01:29.917Z,6.97
2018-05-15T09:03:58.203Z,6.00
2018-05-15T09:06:26.476Z,5.70
2018-05-15T09:08:54.700Z,5.60
2018-05-15T09:11:22.907Z,6.30
2018-05-15T09:13:50.470Z,6.17
2018-05-15T09:16:17.994Z,6.27
2018-05-15T09:18:45.521Z,6.50
2018-05-15T09:21:13.083Z,7.07
2018-05-15T09:23:40.559Z,6.70
2018-05-15T09:26:08.807Z,6.10
2018-05-15T09:28:36.338Z,6.80
2018-05-15T09:31:03.937Z,5.97
2018-05-15T09:33:31.443Z,7.53
2018-05-15T09:35:58.923Z,5.80
2018-05-15T09:38:26.415Z,6.73
2018-05-15T09:40:53.994Z,6.77
2018-05-15T09:43:21.507Z,5.20
2018-05-15T09:45:49.011Z,6.90
2018-05-15T09:48:16.509Z,7.03
2018-05-15T09:50:43.997Z,5.47
2018-05-15T09:53:11.754Z,6.27
2018-05-15T09:55:39.217Z,6.50
2018-05-15T09:58:06.717Z,5.57
2018-05-15T10:00:34.211Z,6.00
2018-05-15T10:03:01.760Z,5.87
2018-05-15T10:05:29.211Z,6.63
2018-05-15T10:07:56.772Z,6.53
2018-05-15T10:10:25.086Z,6.47
2018-05-15T10:12:52.548Z,5.53
2018-05-15T10:15:20.075Z,6.10
2018-05-15T10:17:47.545Z,5.80
2018-05-15T10:20:15.104Z,5.50
2018-05-15T10:22:42.612Z,4.87
2018-05-15T10:25:10.114Z,6.00
2018-05-15T10:27:38.377Z,5.77
2018-05-15T10:30:06.804Z,4.77
2018-05-15T10:32:34.323Z,5.33
2018-05-15T10:35:01.852Z,5.20
2018-05-15T10:37:29.346Z,4.80
2018-05-15T10:39:56.891Z,4.30
2018-05-15T10:42:24.316Z,4.30
2018-05-15T10:44:51.818Z,3.80
2018-05-15T10:47:19.295Z,6.17
2018-05-15T10:49:47.570Z,4.73
2018-05-15T10:52:15.822Z,4.23
2018-05-15T10:54:43.331Z,5.20
2018-05-15T10:57:10.801Z,4.43
2018-05-15T10:59:38.343Z,4.93
2018-05-15T11:02:06.628Z,4.27
2018-05-15T11:04:34.111Z,5.23
2018-05-15T11:07:01.756Z,4.60
2018-05-15T11:09:30.215Z,4.60
2018-05-15T11:11:57.737Z,4.77
2018-05-15T11:14:25.276Z,5.47
2018-05-15T11:16:52.752Z,4.67
2018-05-15T11:19:20.215Z,5.97
2018-05-15T11:21:47.722Z,5.30
2018-05-15T11:24:15.196Z,5.40
2018-05-15T11:26:42.729Z,5.73
2018-05-15T11:29:10.196Z,6.17
2018-05-15T11:31:37.909Z,6.00
2018-05-15T11:34:06.188Z,7.07
2018-05-15T11:36:33.729Z,5.60
2018-05-15T11:39:01.262Z,6.20
2018-05-15T11:41:28.778Z,5.70
2018-05-15T11:43:56.264Z,5.77
2018-05-15T11:46:24.520Z,5.50
2018-05-15T11:48:53.258Z,5.60
2018-05-15T11:51:21.017Z,6.67
2018-05-15T11:53:47.891Z,6.00
2018-05-15T11:56:15.351Z,5.27
2018-05-15T11:58:42.946Z,5.70
2018-05-15T12:01:10.420Z,5.90
2018-05-15T12:03:38.702Z,6.37
2018-05-15T12:06:06.196Z,6.13
2018-05-15T12:08:33.918Z,5.90
2018-05-15T12:11:01.501Z,5.17
2018-05-15T12:13:29.007Z,5.50
2018-05-15T12:15:56.485Z,5.30
2018-05-15T12:18:24.064Z,5.00
2018-05-15T12:20:52.312Z,4.60
2018-05-15T12:23:20.551Z,5.37
2018-05-15T12:25:48.828Z,5.00
2018-05-15T12:28:16.660Z,4.67
2018-05-15T12:30:44.214Z,5.87
2018-05-15T12:33:11.731Z,5.50
2018-05-15T12:35:39.178Z,5.83
2018-05-15T12:38:06.680Z,5.50
2018-05-15T12:40:34.436Z,5.57
2018-05-15T12:43:02.820Z,6.47
2018-05-15T12:45:31.058Z,5.80
2018-05-15T12:47:58.603Z,5.50
2018-05-15T12:50:26.875Z,5.07
2018-05-15T12:52:54.383Z,5.60
2018-05-15T12:55:21.872Z,5.40
2018-05-15T12:57:49.407Z,5.30
2018-05-15T13:00:17.080Z,5.50
2018-05-15T13:02:44.762Z,5.60
2018-05-15T13:05:12.262Z,5.57
2018-05-15T13:07:39.892Z,5.43
2018-05-15T13:10:08.078Z,5.47
2018-05-15T13:12:36.323Z,5.30
2018-05-15T13:15:03.822Z,5.50
2018-05-15T13:17:32.034Z,6.40
2018-05-15T13:19:59.526Z,5.87
2018-05-15T13:22:27.008Z,5.80
2018-05-15T13:24:55.283Z,5.20
2018-05-15T13:27:23.630Z,5.10
2018-05-15T13:29:51.161Z,5.20
2018-05-15T13:32:18.585Z,5.90
2018-05-15T13:34:46.092Z,5.87
2018-05-15T13:37:14.022Z,5.60
2018-05-15T13:39:41.655Z,5.53
2018-05-15T13:42:09.248Z,6.73
2018-05-15T13:44:37.495Z,5.30
2018-05-15T13:47:05.879Z,5.30
2018-05-15T13:49:33.333Z,4.50
2018-05-15T13:52:00.842Z,4.63
2018-05-15T13:54:28.310Z,5.60
2018-05-15T13:56:55.994Z,4.50
2018-05-15T13:59:24.155Z,5.27
2018-05-15T14:01:51.618Z,4.30
2018-05-15T14:04:19.158Z,5.40
2018-05-15T14:06:46.623Z,4.50
2018-05-15T14:09:14.181Z,5.27
2018-05-15T14:11:41.672Z,5.27
2018-05-15T14:14:09.993Z,5.73
2018-05-15T14:16:37.612Z,4.70
2018-05-15T14:19:05.183Z,5.10
2018-05-15T14:21:33.331Z,5.43
2018-05-15T14:24:00.834Z,5.90
2018-05-15T14:26:29.139Z,6.30
2018-05-15T14:28:56.594Z,5.70
2018-05-15T14:31:24.232Z,6.17
2018-05-15T14:33:52.444Z,4.90
2018-05-15T14:36:20.705Z,5.40
2018-05-15T14:38:49.009Z,5.70
2018-05-15T14:41:16.599Z,5.77
2018-05-15T14:43:44.141Z,5.90
2018-05-15T14:46:12.729Z,5.33
2018-05-15T14:48:40.551Z,6.10
2018-05-15T14:51:07.983Z,6.17
2018-05-15T14:53:35.872Z,5.70
2018-05-15T14:56:03.622Z,5.50
2018-05-15T14:58:31.726Z,5.43
2018-05-15T15:00:59.234Z,6.17
2018-05-15T15:03:27.522Z,5.57
2018-05-15T15:05:55.028Z,5.40
2018-05-15T15:08:22.627Z,5.53
2018-05-15T15:10:50.156Z,6.20
2018-05-15T15:13:17.981Z,5.70
2018-05-15T15:15:45.483Z,6.03
2018-05-15T15:18:13.091Z,6.70
2018-05-15T15:20:40.665Z,6.00
2018-05-15T15:23:08.457Z,5.20
2018-05-15T15:25:35.900Z,6.77
2018-05-15T15:28:03.436Z,6.23
2018-05-15T15:30:31.082Z,5.43
2018-05-15T15:32:58.711Z,6.80
2018-05-15T15:35:26.206Z,5.40
2018-05-15T15:37:53.791Z,5.70
2018-05-15T15:40:21.258Z,6.07
2018-05-15T15:42:48.846Z,6.00
2018-05-15T15:45:16.330Z,5.57
2018-05-15T15:47:43.841Z,5.80
2018-05-15T15:50:11.373Z,5.70
2018-05-15T15:52:38.983Z,6.40
2018-05-15T15:55:07.240Z,5.97
2018-05-15T15:57:34.713Z,6.30
2018-05-15T16:00:02.296Z,5.20
2018-05-15T16:02:29.742Z,5.20
2018-05-15T16:04:57.329Z,6.50
2018-05-15T16:07:24.851Z,5.93
2018-05-15T16:09:56.768Z,5.70
2018-05-15T16:12:24.240Z,5.40
2018-05-15T16:14:51.757Z,5.73
2018-05-15T16:17:19.265Z,6.30
2018-05-15T16:19:46.757Z,6.17
2018-05-15T16:22:15.159Z,5.83
2018-05-15T16:24:42.678Z,5.90
2018-05-15T16:27:10.181Z,5.70
2018-05-15T16:29:37.699Z,5.60
2018-05-15T16:32:05.181Z,5.40
2018-05-15T16:34:32.753Z,5.50
2018-05-15T16:37:00.479Z,6.23
2018-05-15T16:39:28.799Z,5.47
2018-05-15T16:41:56.343Z,6.40
2018-05-15T16:44:24.621Z,5.50
2018-05-15T16:46:52.380Z,5.90
2018-05-15T16:49:20.093Z,5.57
2018-05-15T16:51:47.611Z,6.87
2018-05-15T16:54:15.897Z,6.50
2018-05-15T16:56:43.416Z,7.37
2018-05-15T16:59:11.136Z,6.27
2018-05-15T17:01:38.700Z,7.10
2018-05-15T17:04:06.568Z,6.20
2018-05-15T17:06:34.041Z,6.90
2018-05-15T17:09:01.581Z,6.83
2018-05-15T17:11:29.276Z,10.90
2018-05-15T17:13:57.654Z,6.53
2018-05-15T17:16:25.134Z,8.03
2018-05-15T17:18:52.790Z,6.80
2018-05-15T17:21:20.355Z,6.23
2018-05-15T17:23:47.967Z,5.53
2018-05-15T17:26:15.610Z,5.87
2018-05-15T17:28:43.202Z,7.10
2018-05-15T17:31:11.922Z,9.87
2018-05-15T17:33:39.347Z,13.30
2018-05-15T17:36:06.959Z,8.50
2018-05-15T17:38:34.731Z,7.57
2018-05-15T17:41:02.250Z,7.10
2018-05-15T17:43:29.807Z,7.90
2018-05-15T17:45:57.305Z,7.10
2018-05-15T17:48:24.876Z,7.77
2018-05-15T17:50:52.462Z,7.30
2018-05-15T17:53:20.688Z,7.00
2018-05-15T17:55:48.262Z,7.50
2018-05-15T17:58:15.737Z,7.80
2018-05-15T18:00:45.171Z,6.20
2018-05-15T18:03:12.601Z,7.67
2018-05-15T18:05:40.893Z,6.70
2018-05-15T18:08:08.404Z,7.27
2018-05-15T18:10:36.068Z,6.93
2018-05-15T18:13:03.706Z,7.30
2018-05-15T18:15:31.342Z,5.73
2018-05-15T18:17:58.892Z,6.13
2018-05-15T18:20:26.309Z,6.97
2018-05-15T18:22:53.858Z,7.17
2018-05-15T18:25:21.509Z,8.03
2018-05-15T18:27:49.959Z,8.00
2018-05-15T18:30:17.835Z,6.97
2018-05-15T18:32:46.179Z,7.13
2018-05-15T18:35:13.667Z,7.80
2018-05-15T18:37:41.229Z,8.50
2018-05-15T18:40:08.713Z,8.27
2018-05-15T18:42:36.716Z,8.33
2018-05-15T18:45:04.273Z,9.50
2018-05-15T18:47:31.892Z,9.57
2018-05-15T18:49:59.461Z,7.90
2018-05-15T18:52:27.299Z,10.30
2018-05-15T18:54:55.070Z,8.57
2018-05-15T18:57:22.618Z,11.10
2018-05-15T18:59:51.015Z,17.40
2018-05-15T19:02:18.571Z,21.70
2018-05-15T19:04:46.092Z,21.30
2018-05-15T19:07:13.558Z,20.80
2018-05-15T19:09:41.158Z,17.53
2018-05-15T19:12:08.800Z,12.83
2018-05-15T19:14:37.131Z,14.20
2018-05-15T19:17:04.803Z,13.70
2018-05-15T19:19:32.299Z,15.53
2018-05-15T19:21:59.873Z,11.97
2018-05-15T19:24:27.498Z,10.73
2018-05-15T19:26:55.311Z,8.90
2018-05-15T19:29:22.854Z,7.57
2018-05-15T19:31:50.780Z,7.73
2018-05-15T19:34:18.528Z,7.40
2018-05-15T19:36:46.146Z,8.43
2018-05-15T19:39:13.787Z,8.37
2018-05-15T19:41:41.248Z,8.57
2018-05-15T19:44:08.840Z,8.30
2018-05-15T19:46:36.409Z,7.23
2018-05-15T19:49:04.247Z,8.40
2018-05-15T19:51:31.784Z,7.87
2018-05-15T19:54:00.109Z,8.20
2018-05-15T19:56:27.603Z,9.13
2018-05-15T19:58:55.179Z,7.87
2018-05-15T20:01:22.750Z,7.90
2018-05-15T20:03:50.267Z,7.93
2018-05-15T20:06:17.782Z,8.50
2018-05-15T20:08:46.187Z,7.87
2018-05-15T20:11:14.427Z,7.57
2018-05-15T20:13:41.976Z,7.30
2018-05-15T20:16:09.579Z,8.13
2018-05-15T20:18:37.158Z,9.00
2018-05-15T20:21:04.742Z,8.10
2018-05-15T20:23:32.166Z,8.47
2018-05-15T20:26:00.937Z,8.03
2018-05-15T20:28:29.398Z,7.80
2018-05-15T20:31:12.580Z,8.03
2018-05-15T20:33:40.113Z,8.23
2018-05-15T20:36:08.349Z,8.70
2018-05-15T20:38:36.005Z,8.53
2018-05-15T20:41:03.590Z,8.17
2018-05-15T20:43:31.374Z,9.10
2018-05-15T20:45:58.930Z,9.53
2018-05-15T20:48:27.424Z,7.90
2018-05-15T20:50:55.001Z,9.37
2018-05-15T20:53:22.513Z,8.50
2018-05-15T20:55:50.777Z,9.57
2018-05-15T20:58:18.450Z,15.20
2018-05-15T21:00:46.129Z,9.30
2018-05-15T21:03:13.686Z,8.90
2018-05-15T21:05:41.349Z,9.37
2018-05-15T21:08:08.868Z,8.67
2018-05-15T21:10:36.372Z,8.43
2018-05-15T21:13:03.999Z,9.10
2018-05-15T21:15:31.547Z,8.83
2018-05-15T21:17:59.064Z,8.10
2018-05-15T21:20:27.303Z,9.97
2018-05-15T21:22:54.778Z,9.47
2018-05-15T21:25:22.349Z,9.13
2018-05-15T21:27:49.956Z,9.20
2018-05-15T21:30:18.315Z,10.60
2018-05-15T21:32:46.945Z,10.73
2018-05-15T21:35:14.519Z,11.93
2018-05-15T21:37:42.102Z,9.97
2018-05-15T21:40:09.647Z,10.23
2018-05-15T21:42:37.218Z,10.07
2018-05-15T21:45:05.582Z,9.23
2018-05-15T21:47:33.207Z,9.30
2018-05-15T21:50:00.718Z,10.30
2018-05-15T21:52:29.307Z,9.07
2018-05-15T21:54:56.742Z,10.10
2018-05-15T21:57:24.316Z,10.37
2018-05-15T21:59:51.803Z,10.40
2018-05-15T22:02:19.486Z,11.07
2018-05-15T22:04:47.701Z,9.17
2018-05-15T22:07:15.298Z,8.80
2018-05-15T22:09:44.184Z,8.67
2018-05-15T22:12:12.406Z,8.70
2018-05-15T22:14:39.942Z,9.80
2018-05-15T22:17:07.514Z,9.47
2018-05-15T22:19:35.379Z,8.03
2018-05-15T22:22:02.863Z,7.60
2018-05-15T22:24:31.231Z,8.10
2018-05-15T22:26:58.786Z,8.10
2018-05-15T22:29:26.298Z,6.97
2018-05-15T22:31:53.852Z,6.80
2018-05-15T22:34:21.430Z,7.80
2018-05-15T22:36:49.006Z,7.83
2018-05-15T22:39:17.337Z,8.40
2018-05-15T22:41:44.970Z,7.47
2018-05-15T22:44:12.489Z,7.33
2018-05-15T22:46:39.968Z,6.80
2018-05-15T22:49:07.568Z,7.37
2018-05-15T22:51:35.836Z,7.60
2018-05-15T22:54:03.494Z,7.60
2018-05-15T22:56:31.012Z,7.60
2018-05-15T22:58:59.262Z,6.97
2018-05-15T23:01:26.777Z,6.53
2018-05-15T23:03:54.349Z,6.70
2018-05-15T23:06:22.052Z,7.00
2018-05-15T23:08:49.563Z,7.40
2018-05-15T23:11:17.170Z,7.83
2018-05-15T23:13:44.663Z,8.20
2018-05-15T23:16:12.265Z,7.57
2018-05-15T23:18:39.849Z,8.33
2018-05-15T23:21:07.521Z,7.00
2018-05-15T23:23:35.040Z,7.73
2018-05-15T23:26:02.831Z,7.80
2018-05-15T23:28:30.331Z,8.03
2018-05-15T23:30:57.911Z,7.60
2018-05-15T23:33:26.202Z,7.03
2018-05-15T23:35:53.797Z,8.80
2018-05-15T23:38:22.585Z,7.87
2018-05-15T23:40:50.838Z,7.30
2018-05-15T23:43:19.088Z,7.60
2018-05-15T23:45:46.603Z,7.97
2018-05-15T23:48:14.144Z,7.70
2018-05-15T23:50:42.393Z,7.90
2018-05-15T23:53:09.935Z,8.00
2018-05-15T23:55:37.519Z,7.33
2018-05-15T23:58:05.004Z,7.77
